createdAt,value
2017-04-16T00:00:02.738Z,5.41
2017-04-16T00:15:02.370Z,5.31
2017-04-16T00:30:02.574Z,5.11
2017-04-16T00:45:02.325Z,5
2017-04-16T01:00:02.489Z,4.97
2017-04-16T01:15:02.621Z,4.89
2017-04-16T01:30:03.197Z,4.98
2017-04-16T01:45:02.862Z,5.05
2017-04-16T02:00:02.718Z,5.23
2017-04-16T02:15:02.502Z,5.24
2017-04-16T02:30:02.606Z,5.3
2017-04-16T02:45:02.615Z,5.42
2017-04-16T03:00:02.904Z,5.42
2017-04-16T03:15:02.350Z,4.98
2017-04-16T03:30:02.451Z,4.63
2017-04-16T03:45:02.212Z,4.53
2017-04-16T04:00:02.424Z,4.42
2017-04-16T04:15:02.329Z,4.34
2017-04-16T04:30:02.954Z,4.29
2017-04-16T04:45:02.535Z,4.31
2017-04-16T05:00:03.068Z,4.32
2017-04-16T05:15:03.329Z,4.48
2017-04-16T05:30:02.824Z,4.67
2017-04-16T05:45:02.461Z,4.84
2017-04-16T06:00:03.041Z,5.03
2017-04-16T06:15:03.110Z,5.12
2017-04-16T06:30:02.517Z,5.55
2017-04-16T06:45:03.058Z,5.84
2017-04-16T07:00:03.051Z,6.12
2017-04-16T07:15:02.543Z,6.24
2017-04-16T07:30:02.657Z,6.37
2017-04-16T07:45:02.244Z,6.68
2017-04-16T08:00:02.889Z,6.95
2017-04-16T08:15:02.962Z,7.26
2017-04-16T08:30:02.541Z,7.37
2017-04-16T08:45:03.092Z,7.7
2017-04-16T09:00:03.101Z,7.55
2017-04-16T09:15:02.597Z,7.96
2017-04-16T09:30:02.541Z,8.97
2017-04-16T09:45:02.245Z,8.76
2017-04-16T10:00:02.741Z,7.76
2017-04-16T10:15:02.339Z,9.8
2017-04-16T10:30:03.131Z,11.07
2017-04-16T10:45:02.721Z,10.9
2017-04-16T11:00:02.274Z,11.41
2017-04-16T11:15:03.007Z,10.68
2017-04-16T11:30:02.781Z,10.05
2017-04-16T11:45:03.261Z,9.5
2017-04-16T12:00:02.738Z,9.42
2017-04-16T12:15:02.629Z,10.55
2017-04-16T12:30:02.722Z,10.37
2017-04-16T12:45:03.177Z,11.33
2017-04-16T13:00:02.902Z,11.04
2017-04-16T13:15:03.413Z,9.42
2017-04-16T13:30:02.784Z,8.87
2017-04-16T13:45:02.554Z,9.64
2017-04-16T14:00:02.907Z,10.05
2017-04-16T14:15:03.102Z,10.18
2017-04-16T14:30:03.164Z,8.96
2017-04-16T14:45:02.639Z,9.03
2017-04-16T15:00:03.083Z,9.57
2017-04-16T15:15:02.287Z,10.16
2017-04-16T15:30:03.157Z,10.01
2017-04-16T15:45:02.477Z,9.82
2017-04-16T16:00:03.114Z,9.27
2017-04-16T16:15:03.113Z,8.9
2017-04-16T16:30:03.181Z,8.39
2017-04-16T16:45:02.489Z,7.94
2017-04-16T17:00:02.762Z,7.9
2017-04-16T17:15:02.292Z,7.7
2017-04-16T17:30:02.462Z,7.56
2017-04-16T17:45:02.762Z,7.14
2017-04-16T18:00:03.387Z,5.39
2017-04-16T18:15:02.783Z,5.33
2017-04-16T18:30:02.994Z,5.37
2017-04-16T18:45:02.859Z,5.46
2017-04-16T19:00:02.220Z,5.51
2017-04-16T19:15:03.034Z,5.48
2017-04-16T19:30:02.307Z,5.49
2017-04-16T19:45:02.168Z,5.41
2017-04-16T20:00:02.517Z,5.36
2017-04-16T20:15:02.766Z,5.34
2017-04-16T20:30:03.126Z,5.32
2017-04-16T20:45:03.151Z,5.22
2017-04-16T21:00:02.359Z,5.17
2017-04-16T21:15:03.046Z,5.23
2017-04-16T21:30:02.466Z,5.28
2017-04-16T21:45:03.209Z,5.27
2017-04-16T22:00:02.830Z,5.23
2017-04-16T22:15:03.094Z,5.16
2017-04-16T22:30:02.934Z,5.09
2017-04-16T22:45:02.821Z,5.04
2017-04-16T23:00:02.530Z,4.93
2017-04-16T23:15:02.967Z,4.75
2017-04-16T23:30:02.226Z,4.62
2017-04-16T23:45:02.627Z,4.54
